Airfield :
LOGIN :

Register | Disclaimer

   EN    FR    IT 

 










Legend :    VFR   Marginal VFR   IFR   Intensive IFR   Very Intensive IFR
Visi :
Ceiling :
>= 8 km
>= 3000ft
5 to 8 km
1000 to 3000 ft
1500m to 5 km
500 to 1000 ft
800 to 1500m
200 to 500 ft
< 800m
< 200 ft
Symbols :   Thunderstorms  Fog  Heavy snow  Heavy precipitations  Wind > 20 kt
SIGMETs :     Misc.  Thunderstorms  Icing  Turbulence  Mountain Waves  Volcanic Ashes






- Airport Elevation : 17 ft
- IATA code : STA


EKVJ - Stauning

CURRENT METAR :
  • 290620Z AUTO 12013KT 9999 -RA FEW016/// BKN038/// BKN046/// 14/12 Q1006 TEST

EXPIRED METARs :
  • 290550Z AUTO 12013KT 9999 -RA FEW023/// BKN045/// BKN055/// 14/11 Q1007 TEST
  • 290522Z 12012KT 9999 -RA FEW025 BKN047 13/10 Q1007
  • 290450Z AUTO 11010KT 9999 FEW025/// BKN061/// 13/10 Q1007 TEST
  • 290420Z AUTO 11009KT 9999 FEW019/// BKN100/// 12/10 Q1007 TEST
  • 290350Z AUTO 11008KT 9999 FEW072/// SCT097/// BKN110/// 12/09 Q1008 TEST
  • 290320Z AUTO 11008KT 9999 FEW049/// BKN075/// OVC100/// 12/09 Q1008 TEST
  • 290250Z AUTO 12009KT 9999 BKN085/// BKN100/// 11/09 Q1009 TEST
  • 290220Z AUTO 11010KT 9999 FEW048/// OVC087/// 12/09 Q1009 TEST
  • 290150Z AUTO 12009KT 9999 BKN053/// BKN091/// OVC180/// 11/09 Q1009 TEST

TAF TAF EKVJ
Valid from the 29 at 06:00 until the 29 at 15:00 UTC


290608Z 2906/2915 11012KT 9999 -RA BKN015
BECMG 2906/2908 4000 -RADZ BKN008
TEMPO 2908/2913 8000 SHRA SCT008 BKN015CB
BECMG 2913/2915 17010KT 9999 NSW BKN015



MET'MAP, your aeronautical weather chart ! - Copyright ORBIFLY December 2007 - Disclaimer

ORBIFLY MET'MAP TEAM :

Programming & Development : Alexandra Zaïnal
Original concept : Baudouin d'Aumeries
Technical & hardware support : Manuel Goepfert
Assistance : Marc-Olivier Méhu




SOURCES & CREDITS :

   NOAA